nws-alerts: Checking more than four warning/county codes can delay the loading of your pages. You should use a cron job to get the data.

Nearby METAR Reports

 

KFCI - Richmond/Chester, Virginia, USA
Distance from station: ESE 7mi, 11km
Updated: Sun, 02-Oct-2022 4:56am EDT
Overcast
Overcast
 Wind from calm
Wind: Calm
Temperature: 59°F , 15°C
Dew Point: 59°F , 15°C
Humidity: 100%
Barometer: 29.85 inHg , 1010.8 hPa
Clouds: Overcast
Visibility: 10 miles , 16 km
Cloud details: Overcast 1900 ft
2022/10/02 08:56 KFCI 020856Z AUTO 00000KT 10SM OVC019 15/15 A2985 RMK AO2 SLP117 T01500150 55001
KRIC - Richmond, Virginia, USA
Distance from station: ENE 19mi, 30km
Updated: Sun, 02-Oct-2022 5:22am EDT
Overcast
Overcast
 Wind from calm
Wind: Calm
Temperature: 61°F , 16°C
Dew Point: 57°F , 14°C
Humidity: 88%
Barometer: 29.84 inHg , 1010.5 hPa
Clouds: Overcast
Visibility: 10 miles , 16 km
Cloud details: Partly cloudy 2400 ft
Mostly cloudy 2900 ft
Overcast 8500 ft
2022/10/02 09:22 KRIC 020922Z 00000KT 10SM SCT024 BKN029 OVC085 16/14 A2984 RMK AO2 T01560139
 
KPTB - Petersburg, Virginia, USA
Distance from station: SSE 19mi, 31km
Updated: Sun, 02-Oct-2022 5:35am EDT
Overcast
Overcast
 Wind from calm
Wind: Calm
Temperature: 59°F , 15°C
Dew Point: 57°F , 14°C
Humidity: 94%
Barometer: 29.85 inHg , 1010.8 hPa
Clouds: Overcast
Visibility: 7 miles , 11 km
Cloud details: Overcast 2200 ft
2022/10/02 09:35 KPTB 020935Z AUTO 00000KT 7SM OVC022 15/14 A2985 RMK AO2 T01460140
KOFP - Richmond/Hanover, Virginia, USA
Distance from station: NNE 22mi, 36km
Updated: Sun, 02-Oct-2022 5:01am EDT
Mist, Overcast
Mist, Overcast
 Wind from calm
Wind: Calm
Temperature: 59°F , 15°C
Dew Point: 59°F , 15°C
Humidity: 100%
Barometer: 29.86 inHg , 1011.2 hPa
Summary: Mist
Clouds: Overcast
Visibility: 5 miles , 8 km
Cloud details: Overcast 200 ft
2022/10/02 09:01 KOFP 020901Z AUTO 00000KT 5SM BR OVC002 15/15 A2986 RMK AO2 T01500150
 
KW96 - Quinton, Virginia, USA
Distance from station: E 28mi, 46km
Updated: Sun, 02-Oct-2022 5:35am EDT
Overcast
Overcast
 Wind from calm
Wind: Calm
Temperature: 55°F , 13°C
Dew Point: 55°F , 13°C
Humidity: 100%
Barometer: 29.84 inHg , 1010.5 hPa
Clouds: Overcast
Visibility: 10 miles , 16 km
Cloud details: Overcast 8500 ft
2022/10/02 09:35 KW96 020935Z AUTO 00000KT 10SM OVC085 13/13 A2984 RMK AO1 T01300128
KBKT - Blackstone Army, Virginia, USA
Distance from station: SW 30mi, 48km
Updated: Sun, 02-Oct-2022 5:35am EDT
Overcast
Overcast
 Wind from calm
Wind: Calm
Temperature: 59°F , 15°C
Dew Point: 59°F , 15°C
Humidity: 100%
Barometer: 29.84 inHg , 1010.5 hPa
Clouds: Overcast
Visibility: 7 miles , 11 km
Cloud details: Overcast 500 ft
2022/10/02 09:35 KBKT 020935Z AUTO 00000KT 7SM OVC005 15/15 A2984 RMK AO1 T01480148
 
KW81 - Crewe, Virginia, USA
Distance from station: SW 30mi, 49km
Updated: Sun, 02-Oct-2022 5:35am EDT
Overcast
Overcast
 Wind from calm
Wind: Calm
Temperature: 57°F , 14°C
Dew Point: 55°F , 13°C
Humidity: 94%
Barometer: 29.84 inHg , 1010.5 hPa
Clouds: Overcast
Visibility: 4 miles , 6 km
Cloud details: Overcast 300 ft
2022/10/02 09:35 KW81 020935Z AUTO 00000KT 4SM OVC003 14/13 A2984 RMK AO1 T01410127
K7W4 - Bumpass, Virginia, USA
Distance from station: N 38mi, 61km
Updated: Sun, 02-Oct-2022 5:35am EDT
Overcast
Overcast
 Wind from calm
Wind: Calm
Temperature: 59°F , 15°C
Dew Point: 59°F , 15°C
Humidity: 100%
Barometer: 29.85 inHg , 1010.8 hPa
Clouds: Overcast
Visibility: 10 miles , 16 km
Cloud details: Overcast 400 ft
2022/10/02 09:35 K7W4 020935Z AUTO 00000KT 10SM OVC004 15/15 A2985 RMK AO1 T01480148
 
KFVX - Farmville, Virginia, USA
Distance from station: W 43mi, 69km
Updated: Sun, 02-Oct-2022 5:35am EDT
Drizzle, Overcast
Drizzle, Overcast
 Wind from N
Wind: N 3 mph , 6 km/h
Temperature: 59°F , 15°C
Dew Point: 59°F , 15°C
Humidity: 100%
Barometer: 29.84 inHg , 1010.5 hPa
Summary: Drizzle
Clouds: Overcast
Visibility: 2 miles , 3 km
Cloud details: Overcast 300 ft
2022/10/02 09:35 KFVX 020935Z AUTO 01003KT 2SM DZ OVC003 15/15 A2984 RMK AO2 P0001 T01450145
KW31 - Kenbridge, Virginia, USA
Distance from station: SW 43mi, 70km
Updated: Sun, 02-Oct-2022 5:35am EDT
Overcast
Overcast
 
Temperature: 57°F , 14°C
Dew Point: 57°F , 14°C
Humidity: 100%
Barometer: 29.84 inHg , 1010.5 hPa
Clouds: Overcast
Visibility: 1 1/4 miles , 2 km
Cloud details: Overcast 300 ft
2022/10/02 09:35 KW31 020935Z AUTO 1 1/4SM OVC003 14/14 A2984 RMK AO1 T01400140
 
KLKU - Louisa, Virginia, USA
Distance from station: NNW 44mi, 72km
Updated: Sun, 02-Oct-2022 5:35am EDT
Mist, Overcast
Mist, Overcast
 Wind from NNW
Wind: NNW 5 mph , 7 km/h
Temperature: 57°F , 14°C
Barometer: 29.86 inHg , 1011.2 hPa
Summary: Mist
Clouds: Overcast
Visibility: 1 mile , 2 km
Cloud details: Overcast 200 ft
2022/10/02 09:35 KLKU 020935Z AUTO 33004KT 1SM BR OVC002 14/ A2986 RMK AO2 T0136////
KLVL - Lawrenceville, Virginia, USA
Distance from station: S 46mi, 75km
Updated: Sun, 02-Oct-2022 5:35am EDT
Overcast
Overcast
 Wind from calm
Wind: Calm
Temperature: 61°F , 16°C
Dew Point: 59°F , 15°C
Humidity: 94%
Barometer: 29.85 inHg , 1010.8 hPa
Clouds: Overcast
Visibility: 10 miles , 16 km
Cloud details: Overcast 1000 ft
2022/10/02 09:35 KLVL 020935Z AUTO 00000KT 10SM OVC010 16/15 A2985 RMK AO1 T01570152
 
KAKQ - Norfolk/Wakefld, Virginia, USA
Distance from station: SE 47mi, 75km
Updated: Sun, 02-Oct-2022 4:54am EDT
Mist, Overcast
Mist, Overcast
 Wind from calm
Wind: Calm
Temperature: 57°F , 14°C
Dew Point: 57°F , 14°C
Humidity: 100%
Barometer: 29.84 inHg , 1010.5 hPa
Summary: Mist
Clouds: Overcast
Visibility: 6 miles , 10 km
Cloud details: Partly cloudy 5000 ft
Overcast 7500 ft
2022/10/02 08:54 KAKQ 020854Z AUTO 00000KT 6SM BR SCT050 OVC075 14/14 A2984 RMK AO2 SLP105 T01440139 55001 $
KFYJ - West Point, Virginia, USA
Distance from station: E 48mi, 78km
Updated: Sun, 02-Oct-2022 5:35am EDT
Overcast
Overcast
 Wind from calm
Wind: Calm
Temperature: 55°F , 13°C
Dew Point: 55°F , 13°C
Humidity: 100%
Barometer: 29.85 inHg , 1010.8 hPa
Clouds: Overcast
Visibility: 10 miles , 16 km
Cloud details: Overcast 8000 ft
2022/10/02 09:35 KFYJ 020935Z AUTO 00000KT 10SM OVC080 13/13 A2985 RMK AO1 T01300126